Time;durP1;ratioP1;P1;durP2;ratioP2;P2;SDS_P1;SDS_P2;PMS_P1;PMS_P2;Temp;Humidity;BMP_temperature;BMP_pressure;BME280_temperature;BME280_humidity;BME280_pressure;Samples;Min_cycle;Max_cycle;Signal;HPM_P1;HPM_P2
2022/01/15 00:01:56;;;;;;;38.63;18.87;;;5.00;99.90;;;;;;5035009;28;21007;-85
2022/01/15 00:04:21;;;;;;;36.40;18.93;;;5.00;99.90;;;;;;5034846;28;20280;-85
2022/01/15 00:06:47;;;;;;;38.50;20.10;;;5.00;99.90;;;;;;5034466;28;20180;-85
2022/01/15 00:09:15;;;;;;;35.23;20.10;;;5.00;99.90;;;;;;5034557;28;20185;-86
2022/01/15 00:11:40;;;;;;;40.13;18.30;;;5.00;99.90;;;;;;5033629;28;20247;-85
2022/01/15 00:14:15;;;;;;;38.23;18.40;;;5.00;99.90;;;;;;5034430;28;20458;-85
2022/01/15 00:16:49;;;;;;;36.80;19.27;;;5.00;99.90;;;;;;5052495;28;20218;-86
2022/01/15 00:19:17;;;;;;;36.97;18.37;;;5.00;99.90;;;;;;5034603;28;20416;-85
2022/01/15 00:21:43;;;;;;;43.37;19.73;;;5.00;99.90;;;;;;5034439;28;20513;-85
2022/01/15 00:24:09;;;;;;;40.53;20.37;;;4.90;99.90;;;;;;5034441;28;20449;-85
2022/01/15 00:26:35;;;;;;;38.17;18.63;;;5.00;99.90;;;;;;5034180;28;20861;-85
2022/01/15 00:29:00;;;;;;;45.40;22.10;;;5.00;99.90;;;;;;5052502;28;20265;-85
2022/01/15 00:31:27;;;;;;;39.60;19.73;;;5.00;99.90;;;;;;5034607;28;20262;-85
2022/01/15 00:33:52;;;;;;;39.40;18.10;;;5.00;99.90;;;;;;5034221;28;20851;-86
2022/01/15 00:36:18;;;;;;;34.13;17.03;;;4.90;99.90;;;;;;5051971;28;20467;-85
2022/01/15 00:38:45;;;;;;;32.03;16.30;;;4.90;99.90;;;;;;5034068;28;20466;-85
2022/01/15 00:41:10;;;;;;;32.90;15.57;;;4.90;99.90;;;;;;5034072;28;20643;-85
2022/01/15 00:43:36;;;;;;;32.60;16.27;;;4.90;99.90;;;;;;5034144;28;20446;-85
2022/01/15 00:46:02;;;;;;;30.53;14.50;;;4.90;99.90;;;;;;5051812;28;20477;-85
2022/01/15 00:48:28;;;;;;;36.20;14.90;;;4.90;99.90;;;;;;5033904;28;20181;-86
2022/01/15 00:50:53;;;;;;;33.83;15.90;;;4.80;99.90;;;;;;5034058;28;20179;-86
2022/01/15 00:53:19;;;;;;;30.77;15.63;;;4.80;99.90;;;;;;5052048;28;20199;-85
2022/01/15 00:55:45;;;;;;;30.50;15.40;;;4.80;99.90;;;;;;5034038;28;20267;-85
2022/01/15 00:58:11;;;;;;;31.67;15.50;;;4.80;99.90;;;;;;5033770;28;20188;-85
2022/01/15 01:00:37;;;;;;;32.20;15.57;;;4.80;99.90;;;;;;5033881;28;20408;-85
2022/01/15 01:03:03;;;;;;;32.13;14.90;;;4.80;99.90;;;;;;5033972;28;20490;-84
2022/01/15 01:05:29;;;;;;;37.10;15.53;;;4.80;99.90;;;;;;5051866;28;20175;-85
2022/01/15 01:07:56;;;;;;;35.70;16.70;;;4.70;99.90;;;;;;5033732;28;20501;-85
2022/01/15 01:13:26;;;;;;;33.53;15.10;;;4.70;99.90;;;;;;5051809;28;20504;-85
2022/01/15 01:23:45;;;;;;;32.70;15.20;;;4.50;99.90;;;;;;5055924;28;20430;-85
2022/01/15 01:28:58;;;;;;;32.47;15.17;;;4.50;99.90;;;;;;5055758;28;20214;-86
2022/01/15 01:31:32;;;;;;;31.97;15.37;;;4.50;99.90;;;;;;5037487;28;20425;-84
2022/01/15 01:34:06;;;;;;;38.23;16.60;;;4.50;99.90;;;;;;5055366;28;20443;-85
2022/01/15 01:36:43;;;;;;;37.27;15.50;;;4.50;99.90;;;;;;5037331;28;20410;-85
2022/01/15 01:39:15;;;;;;;37.47;16.07;;;4.50;99.90;;;;;;5037575;28;20410;-85
2022/01/15 01:41:48;;;;;;;31.93;14.53;;;4.50;99.90;;;;;;5037407;28;20472;-85
2022/01/15 01:44:17;;;;;;;37.27;17.20;;;4.50;99.90;;;;;;5055192;28;20456;-85
2022/01/15 01:46:52;;;;;;;42.77;15.13;;;4.50;99.90;;;;;;5037134;28;20478;-85
2022/01/15 01:49:19;;;;;;;28.73;13.13;;;4.40;99.90;;;;;;5055152;28;20402;-85
2022/01/15 01:51:45;;;;;;;43.67;16.40;;;4.40;99.90;;;;;;5037092;28;20443;-85
2022/01/15 01:54:16;;;;;;;37.27;15.03;;;4.40;99.90;;;;;;5037115;28;20480;-85
2022/01/15 01:56:42;;;;;;;33.03;16.70;;;4.40;99.90;;;;;;5036963;28;20421;-85
2022/01/15 01:59:08;;;;;;;38.93;16.90;;;4.50;99.90;;;;;;5036959;28;20414;-85
2022/01/15 02:01:34;;;;;;;31.17;15.63;;;4.40;99.90;;;;;;5054957;28;20982;-85
2022/01/15 02:04:00;;;;;;;30.07;14.70;;;4.40;99.90;;;;;;5037087;28;20186;-85
2022/01/15 02:06:26;;;;;;;30.20;15.53;;;4.30;99.90;;;;;;5054490;28;20410;-85
2022/01/15 02:08:54;;;;;;;27.73;12.97;;;4.20;99.90;;;;;;5036939;28;20418;-85
2022/01/15 02:11:19;;;;;;;30.60;12.90;;;4.20;99.90;;;;;;5036712;28;20185;-85
2022/01/15 02:13:46;;;;;;;34.33;14.37;;;4.10;99.90;;;;;;5036874;28;20482;-85
2022/01/15 02:16:14;;;;;;;30.90;14.17;;;4.20;99.90;;;;;;5054609;28;20179;-85
2022/01/15 02:18:40;;;;;;;28.83;13.20;;;4.20;99.90;;;;;;5054536;28;20415;-85
2022/01/15 02:23:35;;;;;;;29.23;14.10;;;4.20;99.90;;;;;;5054822;28;20949;-85
2022/01/15 02:26:06;;;;;;;32.67;13.93;;;4.20;99.90;;;;;;5054376;28;20406;-85
2022/01/15 02:28:35;;;;;;;31.30;12.13;;;4.30;99.90;;;;;;5036391;28;20426;-85
2022/01/15 02:31:05;;;;;;;31.10;13.23;;;4.30;99.90;;;;;;5036588;28;20422;-84
2022/01/15 02:33:31;;;;;;;26.60;12.50;;;4.30;99.90;;;;;;5035227;28;20477;-85
2022/01/15 02:35:58;;;;;;;31.30;14.33;;;4.30;99.90;;;;;;5036488;28;20416;-85
2022/01/15 02:38:24;;;;;;;30.50;15.10;;;4.30;99.90;;;;;;5035989;28;20559;-85
2022/01/15 02:40:50;;;;;;;35.63;14.30;;;4.30;99.90;;;;;;5054271;28;20970;-84
2022/01/15 02:43:21;;;;;;;35.87;15.53;;;4.30;99.90;;;;;;5036092;28;20525;-85
2022/01/15 02:45:58;;;;;;;28.50;12.47;;;4.30;99.90;;;;;;5036349;28;20467;-85
2022/01/15 02:48:27;;;;;;;28.23;12.77;;;4.30;99.90;;;;;;5035870;28;20418;-85
2022/01/15 02:50:53;;;;;;;34.73;12.63;;;4.30;99.90;;;;;;5036196;28;20423;-86
2022/01/15 02:53:19;;;;;;;25.47;10.43;;;4.30;99.90;;;;;;5035947;28;20465;-85
2022/01/15 02:55:48;;;;;;;33.13;12.47;;;4.20;99.90;;;;;;5036099;28;20791;-85
2022/01/15 02:58:14;;;;;;;31.53;13.17;;;4.20;99.90;;;;;;5035660;28;20415;-85
2022/01/15 03:00:40;;;;;;;40.10;14.00;;;4.10;99.90;;;;;;5035956;28;20418;-84
2022/01/15 03:03:06;;;;;;;26.90;12.87;;;4.10;99.90;;;;;;5035966;28;20492;-85
2022/01/15 03:05:32;;;;;;;32.60;13.20;;;4.10;99.90;;;;;;5035738;28;20674;-86
2022/01/15 03:07:57;;;;;;;27.10;12.50;;;4.10;99.90;;;;;;5053465;28;20417;-85
2022/01/15 03:10:23;;;;;;;27.83;12.53;;;4.10;99.90;;;;;;5035766;28;20678;-85
2022/01/15 03:12:48;;;;;;;28.77;13.40;;;4.10;99.90;;;;;;5035647;28;20259;-86
2022/01/15 03:15:19;;;;;;;25.13;12.33;;;4.10;99.90;;;;;;5053416;28;20200;-85
2022/01/15 03:17:46;;;;;;;29.63;11.57;;;4.10;99.90;;;;;;5035517;28;20172;-85
2022/01/15 03:20:13;;;;;;;26.30;10.90;;;4.10;99.90;;;;;;5035699;28;20848;-85
2022/01/15 03:22:39;;;;;;;25.93;12.33;;;4.20;99.90;;;;;;5053252;28;20514;-85
2022/01/15 03:25:05;;;;;;;27.80;12.97;;;4.20;99.90;;;;;;5035362;28;20512;-85
2022/01/15 03:27:31;;;;;;;27.40;12.50;;;4.10;99.90;;;;;;5035137;28;20433;-85
2022/01/15 03:29:57;;;;;;;35.17;12.90;;;4.10;99.90;;;;;;5035513;28;20798;-85
2022/01/15 03:32:22;;;;;;;25.73;11.40;;;4.10;99.90;;;;;;5059101;22;20578;-88
2022/01/15 03:34:49;;;;;;;23.13;11.53;;;4.10;99.90;;;;;;5051217;28;20774;-88
2022/01/15 03:37:15;;;;;;;20.20;10.40;;;4.10;99.90;;;;;;5039793;28;20459;-88
2022/01/15 03:39:41;;;;;;;23.17;10.70;;;4.10;99.90;;;;;;5032528;28;20412;-86
2022/01/15 03:42:13;;;;;;;24.73;10.30;;;4.00;99.90;;;;;;5032401;28;20469;-86
2022/01/15 03:44:44;;;;;;;23.57;9.23;;;4.00;99.90;;;;;;5032368;28;20424;-88
2022/01/15 03:47:10;;;;;;;21.03;10.80;;;3.90;99.90;;;;;;5032082;28;20474;-88
2022/01/15 03:49:37;;;;;;;26.03;11.00;;;3.90;99.90;;;;;;5036273;28;20959;-88
2022/01/15 03:52:07;;;;;;;23.43;9.83;;;3.90;99.90;;;;;;5052138;28;20439;-88
2022/01/15 03:54:33;;;;;;;27.83;10.33;;;3.90;99.90;;;;;;5052047;28;20461;-88
2022/01/15 03:57:00;;;;;;;21.97;11.50;;;3.80;99.90;;;;;;5051705;28;20807;-88
2022/01/15 03:59:26;;;;;;;20.80;9.70;;;3.80;99.90;;;;;;5051961;28;20580;-88
2022/01/15 04:01:52;;;;;;;24.50;11.10;;;3.90;99.90;;;;;;5052178;28;20426;-86
2022/01/15 04:04:18;;;;;;;22.60;9.53;;;3.90;99.90;;;;;;5051980;28;20429;-87
2022/01/15 04:06:44;;;;;;;22.13;10.63;;;3.90;99.90;;;;;;5051725;28;20439;-87
2022/01/15 04:09:11;;;;;;;18.03;10.17;;;3.80;99.90;;;;;;5051932;28;20425;-87
2022/01/15 04:11:37;;;;;;;21.53;9.80;;;3.80;99.90;;;;;;5051950;28;20919;-87
2022/01/15 04:14:04;;;;;;;17.80;10.00;;;3.80;99.90;;;;;;5051660;28;20451;-87
2022/01/15 04:16:29;;;;;;;24.03;10.37;;;3.80;99.90;;;;;;5051457;28;20410;-88
2022/01/15 04:18:57;;;;;;;18.70;9.30;;;3.80;99.90;;;;;;5051697;28;20426;-88
2022/01/15 04:21:23;;;;;;;25.70;10.80;;;3.80;99.90;;;;;;5052013;28;20184;-88
2022/01/15 04:23:49;;;;;;;18.20;8.87;;;3.80;99.90;;;;;;5051601;28;20476;-87
2022/01/15 04:26:17;;;;;;;24.50;9.00;;;3.80;99.90;;;;;;5051635;28;20422;-88
2022/01/15 04:28:42;;;;;;;23.47;10.50;;;3.80;99.90;;;;;;5051467;28;20473;-87
2022/01/15 04:31:09;;;;;;;21.37;11.10;;;3.80;99.90;;;;;;5051396;28;20423;-88
2022/01/15 04:33:36;;;;;;;24.43;10.23;;;3.80;99.90;;;;;;5051562;28;20735;-87
2022/01/15 04:36:07;;;;;;;23.00;11.70;;;3.80;99.90;;;;;;5051550;28;20410;-88
2022/01/15 04:38:36;;;;;;;25.80;10.97;;;3.90;99.90;;;;;;5051325;28;20988;-88
2022/01/15 04:41:03;;;;;;;23.17;11.73;;;3.80;99.90;;;;;;5051586;28;20418;-88
2022/01/15 04:43:28;;;;;;;23.93;12.77;;;3.90;99.90;;;;;;5051227;28;20465;-86
2022/01/15 04:45:54;;;;;;;23.27;11.43;;;3.90;99.90;;;;;;5051595;28;20450;-88
2022/01/15 04:48:20;;;;;;;23.97;12.97;;;3.90;99.90;;;;;;5051309;28;20200;-88
2022/01/15 04:50:46;;;;;;;21.67;10.80;;;3.80;99.90;;;;;;5051342;28;20183;-88
2022/01/15 04:53:11;;;;;;;18.90;9.60;;;3.80;99.90;;;;;;5051371;28;20200;-87
2022/01/15 04:55:38;;;;;;;17.97;9.87;;;3.70;99.90;;;;;;5051270;28;20505;-89
2022/01/15 04:58:05;;;;;;;18.93;10.07;;;3.50;99.90;;;;;;5050291;28;20195;-87
2022/01/15 05:00:31;;;;;;;17.77;10.53;;;3.40;99.90;;;;;;5051365;28;20456;-88
2022/01/15 05:02:57;;;;;;;17.40;9.57;;;3.30;99.90;;;;;;5051169;28;20475;-87
2022/01/15 05:05:26;;;;;;;23.90;12.70;;;3.30;99.90;;;;;;5051095;28;20415;-89
2022/01/15 05:07:53;;;;;;;22.70;12.93;;;3.30;99.90;;;;;;5050926;28;20625;-88
2022/01/15 05:10:23;;;;;;;23.80;11.93;;;3.40;99.90;;;;;;5051225;28;20421;-88
2022/01/15 05:12:49;;;;;;;22.63;12.33;;;3.40;99.90;;;;;;5049303;28;20437;-88
2022/01/15 05:15:17;;;;;;;19.47;10.93;;;3.40;99.90;;;;;;5040747;28;20434;-89
2022/01/15 05:17:44;;;;;;;22.57;13.07;;;3.50;99.90;;;;;;5043668;28;20452;-89
2022/01/15 05:20:11;;;;;;;23.87;12.40;;;3.60;99.90;;;;;;5041799;28;20447;-89
2022/01/15 05:22:38;;;;;;;18.63;10.83;;;3.60;99.90;;;;;;5044403;28;20860;-88
2022/01/15 05:25:05;;;;;;;17.30;10.70;;;3.60;99.90;;;;;;5034528;28;20422;-88
2022/01/15 05:27:30;;;;;;;15.90;9.53;;;3.50;99.90;;;;;;5034252;28;20531;-88
2022/01/15 05:29:56;;;;;;;25.97;10.37;;;3.50;99.90;;;;;;5034629;28;20472;-88
2022/01/15 05:32:23;;;;;;;21.67;9.50;;;3.50;99.90;;;;;;5034324;28;20194;-89
2022/01/15 05:34:49;;;;;;;16.07;9.23;;;3.50;99.90;;;;;;5034689;28;20763;-88
2022/01/15 05:37:16;;;;;;;20.37;9.60;;;3.50;99.90;;;;;;5034197;28;20445;-87
2022/01/15 05:39:41;;;;;;;18.90;9.87;;;3.40;99.90;;;;;;5034697;28;20429;-88
2022/01/15 05:42:08;;;;;;;14.17;9.10;;;3.40;99.90;;;;;;5034518;28;20424;-88
2022/01/15 05:44:34;;;;;;;20.70;9.33;;;3.40;99.90;;;;;;5034257;28;20184;-88
2022/01/15 05:47:00;;;;;;;13.23;8.73;;;3.40;99.90;;;;;;5034281;28;20506;-88
2022/01/15 05:49:26;;;;;;;16.67;9.30;;;3.40;99.90;;;;;;5034635;28;20505;-87
2022/01/15 05:51:52;;;;;;;16.60;8.60;;;3.40;99.90;;;;;;5034031;28;20418;-88
2022/01/15 05:54:17;;;;;;;13.93;8.67;;;3.50;99.90;;;;;;5034519;28;20206;-88
2022/01/15 05:56:43;;;;;;;16.77;9.30;;;3.40;99.90;;;;;;5034298;28;20207;-88
2022/01/15 05:59:09;;;;;;;18.17;9.77;;;3.40;99.90;;;;;;5034238;28;20665;-88
2022/01/15 06:01:36;;;;;;;15.33;8.67;;;3.30;99.90;;;;;;5034206;28;20247;-86
2022/01/15 06:04:02;;;;;;;16.83;9.13;;;3.30;99.90;;;;;;5034654;28;20219;-87
2022/01/15 06:06:28;;;;;;;16.23;9.47;;;3.30;99.90;;;;;;5033806;28;20426;-88
2022/01/15 06:08:54;;;;;;;17.70;10.00;;;3.30;99.90;;;;;;5035164;28;20594;-88
2022/01/15 06:11:20;;;;;;;15.97;9.30;;;3.30;99.90;;;;;;5037695;28;20612;-87
2022/01/15 06:13:46;;;;;;;18.10;9.90;;;3.30;99.90;;;;;;5037420;28;20207;-88
2022/01/15 06:16:12;;;;;;;20.00;10.00;;;3.30;99.90;;;;;;5037412;28;20505;-88
2022/01/15 06:18:38;;;;;;;16.93;9.50;;;3.30;99.90;;;;;;5037232;28;20489;-88
2022/01/15 06:21:04;;;;;;;15.83;9.50;;;3.40;99.90;;;;;;5037232;28;20636;-89
2022/01/15 06:23:29;;;;;;;14.83;7.73;;;3.40;99.90;;;;;;5037392;28;20180;-88
2022/01/15 06:25:55;;;;;;;13.77;7.70;;;3.30;99.90;;;;;;5037311;28;20183;-88
2022/01/15 06:28:21;;;;;;;17.10;9.23;;;3.30;99.90;;;;;;5036814;28;20243;-88
2022/01/15 06:30:47;;;;;;;18.03;10.23;;;3.30;99.90;;;;;;5037250;28;20188;-88
2022/01/15 06:33:13;;;;;;;14.77;7.97;;;3.40;99.90;;;;;;5037090;28;20219;-88
2022/01/15 06:35:38;;;;;;;17.80;9.17;;;3.40;99.90;;;;;;5037222;28;20422;-87
2022/01/15 06:38:04;;;;;;;21.43;9.80;;;3.40;99.90;;;;;;5054513;28;20206;-87
2022/01/15 06:40:31;;;;;;;15.20;8.40;;;3.50;99.90;;;;;;5036992;28;20184;-87
2022/01/15 06:42:57;;;;;;;15.33;9.63;;;3.40;99.90;;;;;;5036632;28;20179;-88
2022/01/15 06:45:23;;;;;;;12.67;8.40;;;3.40;99.90;;;;;;5037123;28;20435;-89
2022/01/15 06:47:49;;;;;;;14.87;9.20;;;3.40;99.90;;;;;;5036479;28;20513;-89
2022/01/15 06:50:15;;;;;;;19.27;9.00;;;3.40;99.90;;;;;;5036885;28;20546;-88
2022/01/15 06:52:40;;;;;;;15.40;8.93;;;3.40;99.90;;;;;;5036931;28;20190;-88
2022/01/15 06:55:08;;;;;;;15.43;8.33;;;3.30;99.90;;;;;;5036635;28;20211;-86
2022/01/15 06:57:35;;;;;;;12.97;8.73;;;3.30;99.90;;;;;;5036267;28;20501;-88
2022/01/15 07:00:01;;;;;;;15.13;9.93;;;3.20;99.90;;;;;;5036417;28;20426;-88
2022/01/15 07:02:27;;;;;;;13.93;8.43;;;3.20;99.90;;;;;;5036664;28;20429;-87
2022/01/15 07:04:53;;;;;;;15.17;8.83;;;3.30;99.90;;;;;;5036707;28;20790;-88
2022/01/15 07:07:18;;;;;;;14.80;9.60;;;3.30;99.90;;;;;;5036286;28;20200;-88
2022/01/15 07:09:44;;;;;;;15.93;8.40;;;3.20;99.90;;;;;;5036325;28;20324;-89
2022/01/15 07:12:10;;;;;;;18.10;9.43;;;3.20;99.90;;;;;;5036560;28;20280;-88
2022/01/15 07:14:36;;;;;;;16.20;9.67;;;3.30;99.90;;;;;;5036340;28;20211;-87
2022/01/15 07:17:02;;;;;;;17.90;9.90;;;3.30;99.90;;;;;;5035841;28;20448;-87
2022/01/15 07:19:28;;;;;;;14.70;8.97;;;3.30;99.90;;;;;;5035646;28;20267;-88
2022/01/15 07:21:54;;;;;;;12.70;8.30;;;3.30;99.90;;;;;;5035829;28;20450;-87
2022/01/15 07:24:20;;;;;;;15.10;9.70;;;3.40;99.90;;;;;;5036223;28;20179;-88
2022/01/15 07:26:47;;;;;;;15.77;8.13;;;3.40;99.90;;;;;;5036191;28;20595;-90
2022/01/15 07:29:16;;;;;;;15.03;8.30;;;3.40;99.90;;;;;;5036391;28;20184;-91
2022/01/15 07:31:46;;;;;;;17.07;8.53;;;3.30;99.90;;;;;;5036425;28;20431;-91
2022/01/15 07:34:13;;;;;;;11.87;8.50;;;3.40;99.90;;;;;;5036110;28;20556;-91
2022/01/15 07:36:40;;;;;;;15.60;8.77;;;3.40;99.90;;;;;;5036193;28;21012;-91
2022/01/15 07:39:07;;;;;;;13.10;8.70;;;3.40;99.90;;;;;;5036038;28;20430;-91
2022/01/15 07:41:34;;;;;;;12.83;7.90;;;3.40;99.90;;;;;;5036084;28;20414;-90
2022/01/15 07:43:59;;;;;;;15.90;8.90;;;3.40;99.90;;;;;;5036043;28;20426;-90
2022/01/15 07:46:25;;;;;;;13.80;8.20;;;3.40;99.90;;;;;;5036111;28;20735;-91
2022/01/15 07:48:51;;;;;;;13.47;9.00;;;3.40;99.90;;;;;;5036088;28;20191;-91
2022/01/15 07:51:17;;;;;;;12.50;9.23;;;3.50;99.90;;;;;;5035921;28;20926;-91
2022/01/15 07:53:43;;;;;;;13.93;8.40;;;3.60;99.90;;;;;;5036731;28;20215;-90
2022/01/15 07:56:09;;;;;;;15.23;8.90;;;3.50;99.90;;;;;;5036328;28;20433;-91
2022/01/15 07:58:34;;;;;;;13.23;8.30;;;3.50;99.90;;;;;;5036128;28;20465;-91
2022/01/15 08:01:49;;;;;;;13.70;8.50;;;3.50;99.90;;;;;;5036078;28;20656;-91
2022/01/15 08:04:15;;;;;;;14.23;8.40;;;3.50;99.90;;;;;;5035929;28;20190;-90
2022/01/15 08:06:41;;;;;;;11.50;8.10;;;3.50;99.90;;;;;;5035751;28;20442;-91
2022/01/15 08:09:07;;;;;;;13.03;8.57;;;3.60;99.90;;;;;;5035748;28;20265;-91
2022/01/15 08:11:33;;;;;;;13.63;8.70;;;3.70;99.90;;;;;;5035822;28;20852;-90
2022/01/15 08:13:59;;;;;;;12.60;8.70;;;3.70;99.90;;;;;;5035817;28;20469;-92
2022/01/15 08:16:25;;;;;;;16.10;9.30;;;3.70;99.90;;;;;;5035585;28;20683;-91
2022/01/15 08:18:50;;;;;;;12.83;7.60;;;3.80;99.90;;;;;;5035942;28;20184;-91
2022/01/15 08:21:16;;;;;;;10.67;7.37;;;3.80;99.90;;;;;;5035779;28;20180;-91
2022/01/15 08:23:42;;;;;;;13.93;8.17;;;3.90;99.90;;;;;;5036329;28;20608;-90
2022/01/15 08:26:07;;;;;;;10.53;7.77;;;3.90;99.90;;;;;;5035731;28;20191;-91
2022/01/15 08:28:33;;;;;;;15.23;8.70;;;3.80;99.90;;;;;;5035240;28;20207;-91
2022/01/15 08:30:59;;;;;;;15.70;8.20;;;3.90;99.90;;;;;;5035569;28;20322;-90
2022/01/15 08:33:25;;;;;;;15.30;9.03;;;4.00;99.90;;;;;;5035086;28;20711;-91
2022/01/15 08:35:51;;;;;;;14.87;9.07;;;4.00;99.90;;;;;;5036231;28;20188;-90
2022/01/15 08:38:16;;;;;;;13.00;8.70;;;4.00;99.90;;;;;;5035808;28;20440;-90
2022/01/15 08:40:42;;;;;;;14.60;9.20;;;4.00;99.90;;;;;;5035626;28;20186;-91
2022/01/15 08:43:08;;;;;;;13.93;9.07;;;4.10;99.90;;;;;;5035365;28;20186;-90
2022/01/15 08:45:36;;;;;;;14.47;9.30;;;4.10;99.90;;;;;;5035296;28;20180;-90
2022/01/15 08:48:02;;;;;;;10.37;7.20;;;4.10;99.90;;;;;;5032245;28;20558;-91
2022/01/15 08:50:28;;;;;;;15.33;9.13;;;4.20;99.90;;;;;;5031921;28;20446;-91
2022/01/15 08:53:01;;;;;;;12.30;8.30;;;4.10;99.90;;;;;;5034835;28;20414;-90
2022/01/15 08:55:29;;;;;;;14.30;9.10;;;4.10;99.90;;;;;;5035540;28;20179;-92
2022/01/15 08:57:55;;;;;;;19.90;8.90;;;4.10;99.90;;;;;;5035332;28;20454;-91
2022/01/15 09:00:21;;;;;;;14.90;8.63;;;4.10;99.90;;;;;;5036137;28;20429;-91
2022/01/15 09:02:48;;;;;;;11.97;8.27;;;4.10;99.90;;;;;;5035486;28;20918;-90
2022/01/15 09:05:14;;;;;;;15.03;9.70;;;4.00;99.90;;;;;;5035181;28;20433;-91
2022/01/15 09:07:41;;;;;;;12.87;8.93;;;4.00;99.90;;;;;;5035139;28;20497;-91
2022/01/15 09:10:06;;;;;;;14.20;8.70;;;4.10;99.90;;;;;;5036190;28;20784;-90
2022/01/15 09:12:33;;;;;;;14.37;8.77;;;4.20;99.90;;;;;;5036623;28;20471;-90
2022/01/15 09:14:59;;;;;;;15.23;8.83;;;4.30;99.90;;;;;;5037245;28;20466;-91
2022/01/15 09:17:28;;;;;;;12.17;9.13;;;4.30;99.90;;;;;;5037457;28;21034;-91
2022/01/15 09:19:54;;;;;;;12.80;7.13;;;4.30;99.90;;;;;;5037637;28;20691;-90
2022/01/15 09:22:22;;;;;;;13.20;9.30;;;4.40;99.90;;;;;;5038238;28;20411;-91
2022/01/15 09:24:47;;;;;;;16.07;8.87;;;4.50;99.90;;;;;;5037822;28;20426;-91
2022/01/15 09:30:15;;;;;;;11.30;7.00;;;4.60;99.90;;;;;;5053877;28;20582;-88
2022/01/15 09:32:50;;;;;;;14.80;7.90;;;4.60;99.90;;;;;;5034544;28;20448;-90
2022/01/15 09:35:21;;;;;;;11.63;8.57;;;4.60;99.90;;;;;;5033829;28;20462;-90
2022/01/15 09:37:49;;;;;;;15.30;7.97;;;4.70;99.90;;;;;;5033941;28;20439;-90
2022/01/15 09:40:16;;;;;;;12.27;7.13;;;4.80;99.90;;;;;;5054235;23;21018;-80
2022/01/15 09:42:44;;;;;;;11.03;8.87;;;4.70;99.90;;;;;;5026628;28;20890;-80
2022/01/15 09:45:11;;;;;;;15.60;8.07;;;4.80;99.90;;;;;;5035556;28;20471;-79
2022/01/15 09:47:38;;;;;;;11.50;8.77;;;4.80;99.90;;;;;;5025980;28;20431;-80
2022/01/15 09:50:11;;;;;;;11.87;7.63;;;4.70;99.90;;;;;;5040532;28;20483;-80
2022/01/15 09:52:37;;;;;;;12.13;7.60;;;4.70;99.90;;;;;;5039264;28;20527;-80
2022/01/15 09:55:09;;;;;;;13.63;8.47;;;4.80;99.90;;;;;;5038210;28;20521;-79
2022/01/15 09:57:37;;;;;;;14.67;8.13;;;4.80;99.90;;;;;;5038315;28;20444;-80
2022/01/15 10:00:09;;;;;;;14.70;7.50;;;4.80;99.90;;;;;;5037849;28;20926;-80
2022/01/15 10:02:39;;;;;;;13.17;7.87;;;4.90;99.90;;;;;;5043785;28;20486;-80
2022/01/15 10:05:05;;;;;;;10.33;6.77;;;4.90;99.90;;;;;;5042259;28;20437;-81
2022/01/15 10:07:31;;;;;;;13.20;7.37;;;4.80;99.90;;;;;;5051244;28;20480;-81
2022/01/15 10:10:20;;;;;;;11.93;8.10;;;4.70;99.90;;;;;;5049292;28;20495;-81
2022/01/15 10:12:46;;;;;;;11.37;7.37;;;4.60;99.90;;;;;;5040891;28;20239;-80
2022/01/15 10:15:14;;;;;;;10.30;6.70;;;4.40;99.90;;;;;;5048818;28;20517;-80
2022/01/15 10:17:40;;;;;;;13.77;7.60;;;4.40;99.90;;;;;;5049361;28;20426;-81
2022/01/15 10:20:11;;;;;;;14.40;8.30;;;4.30;99.90;;;;;;5048187;28;20430;-80
2022/01/15 10:22:42;;;;;;;13.13;8.10;;;4.40;99.90;;;;;;5047633;28;20449;-80
2022/01/15 10:25:14;;;;;;;10.07;7.30;;;4.50;99.90;;;;;;5047429;28;20806;-79
2022/01/15 10:27:54;;;;;;;11.50;7.63;;;4.50;99.90;;;;;;5045855;28;20952;-80
2022/01/15 10:30:20;;;;;;;10.77;6.67;;;4.50;99.90;;;;;;5045530;28;20453;-80
2022/01/15 10:32:58;;;;;;;10.17;7.07;;;4.60;99.90;;;;;;5044042;28;20599;-80
2022/01/15 10:35:26;;;;;;;11.87;7.53;;;4.80;99.90;;;;;;5045403;28;20188;-80
2022/01/15 10:37:58;;;;;;;13.10;7.87;;;4.90;99.90;;;;;;5044213;28;20614;-80
2022/01/15 10:40:41;;;;;;;11.50;7.83;;;4.90;99.90;;;;;;5043311;28;20466;-80
2022/01/15 10:43:09;;;;;;;13.97;8.23;;;5.00;99.90;;;;;;5043592;28;20444;-79
2022/01/15 10:45:46;;;;;;;12.07;8.30;;;5.10;99.90;;;;;;5043354;28;20468;-80
2022/01/15 10:48:25;;;;;;;13.00;8.73;;;5.10;99.90;;;;;;5043324;28;20419;-80
2022/01/15 10:51:08;;;;;;;12.10;7.50;;;5.10;99.90;;;;;;5042830;28;20424;-80
2022/01/15 10:53:39;;;;;;;10.67;7.03;;;5.20;99.90;;;;;;5041177;28;20490;-80
2022/01/15 10:56:07;;;;;;;12.50;8.07;;;5.30;99.90;;;;;;5030908;28;21092;-81
2022/01/15 10:58:33;;;;;;;12.23;7.80;;;5.30;99.90;;;;;;5036542;28;20423;-81
2022/01/15 11:00:59;;;;;;;10.60;7.03;;;5.30;99.90;;;;;;5041246;28;20425;-81
2022/01/15 11:03:39;;;;;;;11.37;8.07;;;5.20;99.90;;;;;;5040081;28;20511;-81
2022/01/15 11:06:05;;;;;;;10.27;6.87;;;5.00;99.90;;;;;;5039672;28;20435;-83
2022/01/15 11:08:39;;;;;;;11.90;8.77;;;4.90;99.90;;;;;;5041323;28;20935;-81
2022/01/15 11:11:07;;;;;;;13.43;8.00;;;4.90;99.90;;;;;;5041707;28;20425;-81
2022/01/15 11:13:39;;;;;;;11.33;6.40;;;4.90;99.90;;;;;;5039130;28;20468;-81
2022/01/15 11:16:08;;;;;;;11.60;7.07;;;4.80;99.90;;;;;;5039967;28;20430;-81
2022/01/15 11:18:40;;;;;;;10.80;7.03;;;4.80;99.90;;;;;;5040368;28;20978;-80
2022/01/15 11:21:08;;;;;;;9.57;6.37;;;4.70;99.90;;;;;;5040319;28;20424;-81
2022/01/15 11:23:36;;;;;;;11.47;6.93;;;4.60;99.90;;;;;;5041217;28;20961;-82
2022/01/15 11:26:06;;;;;;;10.50;7.07;;;4.60;99.90;;;;;;5036659;28;20428;-81
2022/01/15 11:28:33;;;;;;;10.23;7.03;;;4.60;99.90;;;;;;5040630;28;20433;-81
2022/01/15 11:31:09;;;;;;;11.10;7.60;;;4.60;99.90;;;;;;5039799;28;20987;-81
2022/01/15 11:33:40;;;;;;;9.60;6.57;;;4.60;99.90;;;;;;5041344;28;20846;-80
2022/01/15 11:36:07;;;;;;;10.23;6.33;;;4.70;99.90;;;;;;5039953;28;20418;-82
2022/01/15 11:38:50;;;;;;;11.10;6.70;;;4.70;99.90;;;;;;5041405;28;20429;-81
2022/01/15 11:41:25;;;;;;;11.37;8.07;;;4.70;99.90;;;;;;5038692;28;20436;-81
2022/01/15 11:43:52;;;;;;;13.10;8.93;;;4.70;99.90;;;;;;5038727;28;20522;-82
2022/01/15 11:46:32;;;;;;;9.77;6.50;;;4.70;99.90;;;;;;5041303;28;20939;-81
2022/01/15 11:49:30;;;;;;;11.07;7.30;;;4.90;99.90;;;;;;5042263;28;20458;-83
2022/01/15 11:52:11;;;;;;;10.00;6.47;;;4.90;99.90;;;;;;5042774;28;20450;-82
2022/01/15 11:54:49;;;;;;;12.70;7.60;;;5.00;99.90;;;;;;5046125;28;20482;-80
2022/01/15 11:57:24;;;;;;;10.43;6.70;;;4.90;99.90;;;;;;5045821;28;20431;-80
2022/01/15 11:59:59;;;;;;;12.53;7.80;;;4.80;99.90;;;;;;5045806;28;20897;-81
2022/01/15 12:02:30;;;;;;;10.50;6.50;;;4.80;99.90;;;;;;5044820;28;20448;-80
2022/01/15 12:05:15;;;;;;;10.03;7.27;;;4.90;99.90;;;;;;5044829;28;20431;-79
2022/01/15 12:07:42;;;;;;;10.63;6.57;;;4.90;99.90;;;;;;5034925;28;20538;-80
2022/01/15 12:10:13;;;;;;;9.67;6.90;;;5.00;99.90;;;;;;5034822;28;20450;-80
2022/01/15 12:12:42;;;;;;;9.90;6.90;;;4.90;99.90;;;;;;5034799;28;20453;-80
2022/01/15 12:15:17;;;;;;;10.23;6.67;;;5.00;99.90;;;;;;5034602;28;20463;-81
2022/01/15 12:17:48;;;;;;;10.73;6.30;;;5.10;99.90;;;;;;5034514;28;20419;-80
2022/01/15 12:20:17;;;;;;;12.40;6.93;;;5.10;99.90;;;;;;5035377;28;20508;-81
2022/01/15 12:22:46;;;;;;;12.37;7.40;;;5.20;99.90;;;;;;5034634;28;20863;-82
2022/01/15 12:25:17;;;;;;;11.33;7.20;;;5.20;99.90;;;;;;5035338;28;20468;-79
2022/01/15 12:27:58;;;;;;;12.83;8.77;;;5.30;99.90;;;;;;5034915;28;20464;-80
2022/01/15 12:30:30;;;;;;;12.00;7.30;;;5.40;99.90;;;;;;5034649;28;20431;-80
2022/01/15 12:33:00;;;;;;;11.90;7.50;;;5.50;99.90;;;;;;5035084;28;20452;-81
2022/01/15 12:35:30;;;;;;;11.40;8.40;;;5.50;99.90;;;;;;5018302;28;20452;-81
2022/01/15 12:38:07;;;;;;;9.70;7.03;;;5.50;99.90;;;;;;5034618;28;20420;-82
2022/01/15 12:40:42;;;;;;;10.97;8.00;;;5.50;99.90;;;;;;5034446;28;20507;-82
2022/01/15 12:43:19;;;;;;;11.17;7.17;;;5.60;99.90;;;;;;5034122;28;20448;-82
2022/01/15 12:45:47;;;;;;;9.50;6.40;;;5.70;99.90;;;;;;5034360;28;20426;-80
2022/01/15 12:48:22;;;;;;;10.07;7.03;;;5.70;99.90;;;;;;5034070;28;20429;-80
2022/01/15 12:50:51;;;;;;;12.70;8.47;;;5.80;99.90;;;;;;5034291;28;20523;-80
2022/01/15 12:53:20;;;;;;;11.80;8.27;;;5.70;99.90;;;;;;5034692;28;20437;-81
2022/01/15 12:55:46;;;;;;;9.77;7.30;;;5.70;99.90;;;;;;5034600;28;20425;-82
2022/01/15 12:58:16;;;;;;;12.47;7.40;;;5.70;99.90;;;;;;5034516;28;20426;-78
2022/01/15 13:00:42;;;;;;;12.03;7.07;;;5.80;99.90;;;;;;5037655;28;20429;-83
2022/01/15 13:03:10;;;;;;;12.87;7.00;;;5.80;99.90;;;;;;5039860;28;20447;-81
2022/01/15 13:05:42;;;;;;;11.03;7.87;;;5.80;99.90;;;;;;5039720;28;20479;-82
2022/01/15 13:08:13;;;;;;;11.23;7.23;;;5.80;99.90;;;;;;5039523;28;20540;-82